Time;durP1;ratioP1;P1;durP2;ratioP2;P2;SDS_P1;SDS_P2;PMS_P1;PMS_P2;Temp;Humidity;BMP_temperature;BMP_pressure;BME280_temperature;BME280_humidity;BME280_pressure;Samples;Min_cycle;Max_cycle;Signal;HPM_P1;HPM_P2
2021/12/13 00:00:09;;;;;;;164.50;70.53;;;;;;;;;;6219039;28;20540;-70
2021/12/13 00:03:15;;;;;;;175.35;76.13;;;;;;;;;;6219164;28;20014;-70
2021/12/13 00:06:18;;;;;;;162.75;67.95;;;;;;;;;;6224944;28;20033;-70
2021/12/13 00:09:20;;;;;;;169.30;71.38;;;;;;;;;;6218947;28;20046;-70
2021/12/13 00:12:23;;;;;;;156.55;65.30;;;;;;;;;;6239331;28;20060;-70
2021/12/13 00:15:27;;;;;;;142.77;65.15;;;;;;;;;;6243310;28;20474;-70
2021/12/13 00:18:28;;;;;;;144.35;67.80;;;;;;;;;;6242985;28;20017;-70
2021/12/13 00:21:33;;;;;;;146.25;66.43;;;;;;;;;;6242545;28;20147;-70
2021/12/13 00:24:35;;;;;;;159.80;70.55;;;;;;;;;;6243549;28;20023;-70
2021/12/13 00:27:46;;;;;;;170.65;75.35;;;;;;;;;;6242789;28;20036;-70
2021/12/13 00:30:51;;;;;;;173.52;77.93;;;;;;;;;;6242420;28;20389;-70
2021/12/13 00:33:57;;;;;;;170.55;70.47;;;;;;;;;;6242868;28;20102;-70
2021/12/13 00:37:06;;;;;;;162.23;68.80;;;;;;;;;;6230162;28;20044;-70
2021/12/13 00:40:10;;;;;;;131.80;57.83;;;;;;;;;;6232278;28;20021;-70
2021/12/13 00:43:12;;;;;;;154.15;61.78;;;;;;;;;;6242671;28;20501;-70
2021/12/13 00:46:14;;;;;;;135.88;58.30;;;;;;;;;;6242352;28;20155;-70
2021/12/13 00:49:14;;;;;;;;;;;;;;;;;;6243233;28;20097;-70
2021/12/13 00:52:16;;;;;;;136.88;60.80;;;;;;;;;;6242401;28;20280;-69
2021/12/13 00:55:16;;;;;;;;;;;;;;;;;;6243002;28;20041;-69
2021/12/13 00:58:23;;;;;;;132.25;52.58;;;;;;;;;;6242373;28;19913;-69
2021/12/13 01:01:24;;;;;;;117.65;55.85;;;;;;;;;;6242336;28;20266;-69
2021/12/13 01:04:44;;;;;;;140.30;60.55;;;;;;;;;;6242342;28;20021;-69
2021/12/13 01:08:03;;;;;;;111.03;50.72;;;;;;;;;;6242658;28;20021;-69
2021/12/13 01:11:10;;;;;;;123.43;52.58;;;;;;;;;;6186426;28;20078;-69
2021/12/13 01:14:20;;;;;;;114.60;49.85;;;;;;;;;;6177132;28;20019;-69
2021/12/13 01:17:41;;;;;;;102.03;41.58;;;;;;;;;;6193398;28;20034;-69
2021/12/13 01:20:57;;;;;;;156.23;65.82;;;;;;;;;;6192862;28;20105;-69
2021/12/13 01:24:06;;;;;;;141.13;57.70;;;;;;;;;;6193575;28;20027;-69
2021/12/13 01:27:06;;;;;;;147.45;62.33;;;;;;;;;;6193648;28;20034;-69
2021/12/13 01:30:09;;;;;;;144.57;63.83;;;;;;;;;;6193224;28;20484;-69
2021/12/13 01:33:10;;;;;;;123.32;56.25;;;;;;;;;;6193353;28;20018;-69
2021/12/13 01:36:24;;;;;;;143.77;61.53;;;;;;;;;;6193311;28;20042;-69
2021/12/13 01:39:27;;;;;;;164.98;66.25;;;;;;;;;;6194180;28;20026;-69
2021/12/13 01:42:27;;;;;;;;;;;;;;;;;;6198528;28;20026;-69
2021/12/13 01:45:29;;;;;;;152.07;64.20;;;;;;;;;;6197457;28;19905;-69
2021/12/13 01:48:32;;;;;;;120.43;57.40;;;;;;;;;;6197175;28;20467;-69
2021/12/13 01:51:33;;;;;;;138.15;58.58;;;;;;;;;;6188234;28;20025;-69
2021/12/13 01:54:37;;;;;;;131.10;58.00;;;;;;;;;;6180173;28;20022;-69
2021/12/13 02:01:10;;;;;;;118.03;47.00;;;;;;;;;;6188719;28;20038;-69
2021/12/13 02:04:13;;;;;;;137.35;61.72;;;;;;;;;;6197567;28;20639;-69
2021/12/13 02:07:13;;;;;;;147.60;61.42;;;;;;;;;;6185380;28;20566;-69
2021/12/13 02:10:16;;;;;;;144.30;61.22;;;;;;;;;;6229481;28;20049;-69
2021/12/13 02:13:22;;;;;;;142.57;60.95;;;;;;;;;;6221466;28;20028;-69
2021/12/13 02:20:09;;;;;;;149.73;66.30;;;;;;;;;;6246212;28;20128;-69
2021/12/13 02:23:10;;;;;;;156.98;65.18;;;;;;;;;;6242662;28;20042;-69
2021/12/13 02:26:10;;;;;;;143.13;66.63;;;;;;;;;;6259515;28;20033;-69
2021/12/13 02:29:16;;;;;;;181.68;70.38;;;;;;;;;;6238047;28;20026;-69
2021/12/13 02:32:16;;;;;;;176.80;69.90;;;;;;;;;;6244929;28;20064;-69
2021/12/13 02:35:17;;;;;;;151.30;58.55;;;;;;;;;;6245902;28;20022;-69
2021/12/13 02:38:20;;;;;;;151.13;70.28;;;;;;;;;;6237985;28;20534;-69
2021/12/13 02:41:22;;;;;;;161.10;71.05;;;;;;;;;;6245123;28;20021;-69
2021/12/13 02:44:25;;;;;;;151.93;68.50;;;;;;;;;;6244211;28;20382;-69
2021/12/13 02:47:30;;;;;;;172.02;71.10;;;;;;;;;;6223248;28;20020;-69
2021/12/13 02:50:40;;;;;;;173.32;68.97;;;;;;;;;;6220361;28;20121;-69
2021/12/13 02:53:58;;;;;;;154.98;67.47;;;;;;;;;;6235453;28;20032;-69
2021/12/13 02:57:03;;;;;;;146.70;63.35;;;;;;;;;;6230599;28;20657;-69
2021/12/13 03:00:17;;;;;;;144.20;60.45;;;;;;;;;;6220784;28;20033;-69
2021/12/13 03:03:21;;;;;;;154.30;67.40;;;;;;;;;;6220508;28;20022;-69
2021/12/13 03:06:24;;;;;;;155.02;66.57;;;;;;;;;;6225416;28;20029;-69
2021/12/13 03:09:26;;;;;;;149.10;65.85;;;;;;;;;;6244907;28;20057;-69
2021/12/13 03:12:28;;;;;;;149.60;64.85;;;;;;;;;;6230195;28;20057;-69
2021/12/13 03:15:29;;;;;;;159.60;67.10;;;;;;;;;;6234987;28;20013;-70
2021/12/13 03:18:39;;;;;;;156.07;70.00;;;;;;;;;;6244414;28;20380;-69
2021/12/13 03:21:48;;;;;;;159.93;69.72;;;;;;;;;;6244521;28;20075;-69
2021/12/13 03:25:06;;;;;;;188.98;77.90;;;;;;;;;;6243469;28;20022;-69
2021/12/13 03:28:07;;;;;;;179.48;70.93;;;;;;;;;;6244371;28;20040;-69
2021/12/13 03:31:09;;;;;;;187.93;75.93;;;;;;;;;;6244085;28;20026;-69
2021/12/13 03:34:15;;;;;;;162.05;70.93;;;;;;;;;;6244274;28;20044;-69
2021/12/13 03:37:18;;;;;;;178.82;72.15;;;;;;;;;;6244271;28;20080;-69
2021/12/13 03:40:19;;;;;;;170.57;73.78;;;;;;;;;;6244158;28;20474;-69
2021/12/13 03:43:25;;;;;;;163.13;69.47;;;;;;;;;;6243831;28;20029;-69
2021/12/13 03:46:27;;;;;;;189.95;76.75;;;;;;;;;;6244217;28;20057;-69
2021/12/13 03:49:28;;;;;;;184.95;75.05;;;;;;;;;;6244037;28;20106;-69
2021/12/13 03:52:31;;;;;;;162.20;67.53;;;;;;;;;;6243526;28;20025;-69
2021/12/13 03:55:32;;;;;;;158.82;66.05;;;;;;;;;;6241530;28;20060;-69
2021/12/13 03:58:35;;;;;;;170.32;71.22;;;;;;;;;;6218767;28;20029;-69
2021/12/13 04:01:41;;;;;;;172.90;73.93;;;;;;;;;;6219342;28;20030;-69
2021/12/13 04:04:46;;;;;;;168.23;73.53;;;;;;;;;;6219210;28;20061;-69
2021/12/13 04:07:48;;;;;;;168.05;68.50;;;;;;;;;;6220059;28;20033;-69
2021/12/13 04:10:51;;;;;;;177.80;71.35;;;;;;;;;;6219015;28;20125;-69
2021/12/13 04:13:54;;;;;;;185.00;73.80;;;;;;;;;;6220237;28;20022;-69
2021/12/13 04:17:09;;;;;;;188.13;73.32;;;;;;;;;;6229973;28;20037;-69
2021/12/13 04:20:12;;;;;;;164.57;67.30;;;;;;;;;;6240747;28;20026;-69
2021/12/13 04:23:22;;;;;;;178.48;72.97;;;;;;;;;;6243418;28;20564;-69
2021/12/13 04:26:23;;;;;;;185.63;74.22;;;;;;;;;;6243680;28;20695;-69
2021/12/13 04:29:29;;;;;;;173.77;71.90;;;;;;;;;;6242882;28;20017;-69
2021/12/13 04:32:34;;;;;;;178.80;70.22;;;;;;;;;;6242738;28;20021;-69
2021/12/13 04:35:35;;;;;;;147.50;61.55;;;;;;;;;;6238793;28;20010;-69
2021/12/13 04:38:48;;;;;;;198.17;77.00;;;;;;;;;;6235989;28;20025;-69
2021/12/13 04:41:51;;;;;;;197.75;76.88;;;;;;;;;;6218008;28;20413;-69
2021/12/13 04:45:24;;;;;;;175.13;69.03;;;;;;;;;;6229596;28;20090;-69
2021/12/13 04:48:27;;;;;;;168.13;63.45;;;;;;;;;;6191327;28;20037;-69
2021/12/13 04:51:34;;;;;;;153.75;65.20;;;;;;;;;;6233535;28;20025;-69
2021/12/13 04:54:35;;;;;;;199.93;73.85;;;;;;;;;;6242765;28;20021;-69
2021/12/13 04:57:36;;;;;;;168.02;67.90;;;;;;;;;;6242623;28;20213;-69
2021/12/13 05:00:39;;;;;;;176.43;72.73;;;;;;;;;;6240669;28;20374;-69
2021/12/13 05:03:41;;;;;;;162.13;69.78;;;;;;;;;;6233196;28;20018;-69
2021/12/13 05:06:43;;;;;;;160.85;64.38;;;;;;;;;;6234021;28;20056;-69
2021/12/13 05:09:45;;;;;;;152.68;65.10;;;;;;;;;;6229854;28;20054;-69
2021/12/13 05:12:59;;;;;;;163.50;70.15;;;;;;;;;;6224783;28;20021;-69
2021/12/13 05:16:08;;;;;;;160.93;67.60;;;;;;;;;;6245510;28;20026;-69
2021/12/13 05:19:11;;;;;;;167.10;71.07;;;;;;;;;;6247383;28;20021;-69
2021/12/13 05:22:13;;;;;;;147.98;64.65;;;;;;;;;;6247610;28;20021;-69
2021/12/13 05:25:19;;;;;;;148.88;64.70;;;;;;;;;;6247050;28;20017;-69
2021/12/13 05:28:24;;;;;;;161.40;67.35;;;;;;;;;;6246774;28;20033;-69
2021/12/13 05:31:24;;;;;;;159.70;68.40;;;;;;;;;;6238456;28;20046;-69
2021/12/13 05:34:29;;;;;;;159.80;66.87;;;;;;;;;;6230688;28;20390;-69
2021/12/13 05:37:43;;;;;;;153.38;63.13;;;;;;;;;;6223368;28;20029;-69
2021/12/13 05:40:45;;;;;;;177.00;70.15;;;;;;;;;;6233870;28;20104;-69
2021/12/13 05:43:48;;;;;;;163.13;68.00;;;;;;;;;;6224588;28;20021;-69
2021/12/13 05:46:48;;;;;;;160.48;65.68;;;;;;;;;;6246813;28;20033;-69
2021/12/13 05:49:49;;;;;;;153.73;63.97;;;;;;;;;;6244824;28;20080;-69
2021/12/13 05:52:59;;;;;;;151.67;60.80;;;;;;;;;;6240538;28;20025;-69
2021/12/13 05:56:10;;;;;;;145.55;59.90;;;;;;;;;;6246747;28;20025;-69
2021/12/13 05:59:28;;;;;;;163.60;63.38;;;;;;;;;;6246742;28;20051;-69
2021/12/13 06:02:47;;;;;;;151.55;64.35;;;;;;;;;;6234681;28;20033;-69
2021/12/13 06:05:49;;;;;;;166.50;73.90;;;;;;;;;;6229885;28;20018;-69
2021/12/13 06:08:52;;;;;;;170.80;67.57;;;;;;;;;;6233477;28;20041;-69
2021/12/13 06:12:01;;;;;;;154.00;64.30;;;;;;;;;;6220340;28;20026;-69
2021/12/13 06:15:04;;;;;;;158.93;66.72;;;;;;;;;;6221051;28;20021;-69
2021/12/13 06:18:04;;;;;;;167.07;68.50;;;;;;;;;;6221463;28;20057;-69
2021/12/13 06:21:23;;;;;;;158.47;61.17;;;;;;;;;;6222052;28;20036;-69
2021/12/13 06:24:25;;;;;;;141.20;61.30;;;;;;;;;;6243407;28;20033;-69
2021/12/13 06:27:25;;;;;;;;;;;;;;;;;;6234753;28;20021;-69
2021/12/13 06:30:27;;;;;;;150.70;67.15;;;;;;;;;;6245472;28;19936;-69
2021/12/13 06:33:28;;;;;;;157.23;62.75;;;;;;;;;;6245675;28;20500;-69
2021/12/13 06:36:31;;;;;;;156.57;63.75;;;;;;;;;;6228473;28;20018;-69
2021/12/13 06:39:31;;;;;;;151.52;65.65;;;;;;;;;;6223094;28;20053;-69
2021/12/13 06:42:32;;;;;;;146.00;64.23;;;;;;;;;;6220151;28;20486;-69
2021/12/13 06:45:34;;;;;;;149.53;64.93;;;;;;;;;;6238207;28;20017;-68
2021/12/13 06:48:37;;;;;;;146.60;64.97;;;;;;;;;;6244696;28;20123;-68
2021/12/13 06:51:43;;;;;;;145.52;59.50;;;;;;;;;;6245492;28;20246;-69
2021/12/13 06:54:45;;;;;;;148.52;60.97;;;;;;;;;;6245073;28;20022;-69
2021/12/13 06:57:46;;;;;;;;;;;;;;;;;;6245584;28;20386;-69
2021/12/13 07:00:49;;;;;;;149.40;69.60;;;;;;;;;;6222677;28;19915;-69
2021/12/13 07:04:18;;;;;;;162.43;68.68;;;;;;;;;;6228279;28;20036;-69
2021/12/13 07:07:21;;;;;;;170.93;71.68;;;;;;;;;;6214799;28;20045;-69
2021/12/13 07:10:24;;;;;;;160.40;69.35;;;;;;;;;;6243084;28;20041;-69
2021/12/13 07:13:27;;;;;;;156.95;66.60;;;;;;;;;;6241010;28;20025;-69
2021/12/13 07:16:32;;;;;;;164.70;68.80;;;;;;;;;;6239270;28;20029;-69
2021/12/13 07:19:33;;;;;;;154.27;65.72;;;;;;;;;;6229341;28;20022;-69
2021/12/13 07:22:33;;;;;;;166.48;70.18;;;;;;;;;;6234076;28;20056;-69
2021/12/13 07:25:36;;;;;;;170.02;72.75;;;;;;;;;;6227700;28;20029;-69
2021/12/13 07:28:36;;;;;;;156.05;70.70;;;;;;;;;;6226094;28;20033;-69
2021/12/13 07:31:37;;;;;;;162.43;69.43;;;;;;;;;;6222181;28;20065;-69
2021/12/13 07:34:49;;;;;;;166.90;74.10;;;;;;;;;;6222317;28;20033;-69
2021/12/13 07:38:00;;;;;;;149.68;65.47;;;;;;;;;;6243396;28;20339;-69
2021/12/13 07:41:04;;;;;;;159.43;76.55;;;;;;;;;;6243230;28;20097;-68
2021/12/13 07:44:04;;;;;;;152.60;72.55;;;;;;;;;;6229458;28;20450;-69
2021/12/13 07:47:07;;;;;;;153.23;68.55;;;;;;;;;;6234220;28;20142;-69
2021/12/13 07:50:08;;;;;;;146.93;64.80;;;;;;;;;;6243061;28;20029;-69
2021/12/13 07:53:12;;;;;;;170.27;80.22;;;;;;;;;;6242006;28;20048;-68
2021/12/13 07:56:22;;;;;;;144.13;63.90;;;;;;;;;;6243528;28;20020;-68
2021/12/13 07:59:24;;;;;;;158.85;64.40;;;;;;;;;;6243982;28;20425;-68
2021/12/13 08:02:25;;;;;;;;;;;;;;;;;;6243645;28;20758;-68
2021/12/13 08:05:30;;;;;;;150.02;65.93;;;;;;;;;;6243614;28;19905;-68
2021/12/13 08:08:32;;;;;;;157.38;66.63;;;;;;;;;;6219893;28;20038;-68
2021/12/13 08:11:37;;;;;;;154.18;66.13;;;;;;;;;;6223423;28;20049;-68
2021/12/13 08:14:39;;;;;;;150.32;66.45;;;;;;;;;;6230938;28;20109;-68
2021/12/13 08:17:42;;;;;;;163.50;68.55;;;;;;;;;;6241690;28;20022;-68
2021/12/13 08:20:47;;;;;;;146.82;64.53;;;;;;;;;;6242190;28;20048;-68
2021/12/13 08:23:50;;;;;;;125.95;50.65;;;;;;;;;;6243296;28;20100;-68
2021/12/13 08:26:54;;;;;;;109.00;47.88;;;;;;;;;;6231657;28;20104;-68
2021/12/13 08:30:23;;;;;;;139.98;60.78;;;;;;;;;;6219721;28;20068;-68
2021/12/13 08:33:26;;;;;;;151.43;64.88;;;;;;;;;;6208621;28;20038;-69
2021/12/13 08:36:29;;;;;;;147.30;67.72;;;;;;;;;;6218358;28;20029;-69
2021/12/13 08:39:32;;;;;;;142.60;65.50;;;;;;;;;;6224303;28;20103;-69
2021/12/13 08:42:36;;;;;;;139.35;66.47;;;;;;;;;;6223887;28;20402;-69
2021/12/13 08:45:40;;;;;;;154.00;71.30;;;;;;;;;;6233754;28;20027;-69
2021/12/13 08:48:48;;;;;;;163.38;75.05;;;;;;;;;;6238680;28;20378;-69
2021/12/13 08:52:09;;;;;;;151.77;69.38;;;;;;;;;;6239269;28;20029;-69
2021/12/13 08:55:12;;;;;;;141.02;63.92;;;;;;;;;;6238458;28;20056;-69
2021/12/13 08:58:15;;;;;;;142.65;65.82;;;;;;;;;;6240635;28;20370;-69
2021/12/13 09:01:16;;;;;;;140.80;64.18;;;;;;;;;;6240913;28;20029;-69
2021/12/13 09:04:21;;;;;;;173.20;78.60;;;;;;;;;;6240895;28;20040;-69
2021/12/13 09:07:22;;;;;;;182.48;85.30;;;;;;;;;;6242378;28;20029;-69
2021/12/13 09:10:36;;;;;;;136.27;60.58;;;;;;;;;;6242270;28;20171;-69
2021/12/13 09:13:40;;;;;;;128.75;65.43;;;;;;;;;;6242571;28;20025;-69
2021/12/13 09:16:40;;;;;;;123.03;61.38;;;;;;;;;;6242213;28;20393;-69
2021/12/13 09:19:46;;;;;;;140.57;72.30;;;;;;;;;;6242011;28;20033;-69
2021/12/13 09:22:49;;;;;;;145.10;73.10;;;;;;;;;;6242776;28;20068;-69
2021/12/13 09:26:08;;;;;;;143.57;70.82;;;;;;;;;;6242480;28;20087;-69
2021/12/13 09:29:09;;;;;;;140.27;70.95;;;;;;;;;;6242273;28;20033;-69
2021/12/13 09:32:14;;;;;;;154.13;77.32;;;;;;;;;;6241849;28;20025;-69
2021/12/13 09:35:35;;;;;;;142.30;69.43;;;;;;;;;;6242321;28;20544;-69
2021/12/13 09:38:35;;;;;;;146.32;78.05;;;;;;;;;;6241891;28;20017;-69
2021/12/13 09:41:44;;;;;;;143.40;72.18;;;;;;;;;;6242523;28;20612;-69
2021/12/13 09:44:54;;;;;;;120.07;60.60;;;;;;;;;;6241871;28;20156;-69
2021/12/13 09:47:56;;;;;;;142.93;74.72;;;;;;;;;;6242108;28;20385;-69
2021/12/13 09:50:59;;;;;;;153.60;76.93;;;;;;;;;;6242362;28;20022;-69
2021/12/13 09:54:02;;;;;;;172.40;85.78;;;;;;;;;;6241924;28;20490;-69
2021/12/13 09:57:04;;;;;;;169.25;86.38;;;;;;;;;;6226815;28;20359;-69
2021/12/13 10:00:11;;;;;;;179.40;92.50;;;;;;;;;;6224099;28;20051;-69
2021/12/13 10:03:32;;;;;;;147.55;67.70;;;;;;;;;;6231498;28;20486;-69
2021/12/13 10:06:35;;;;;;;123.30;60.20;;;;;;;;;;6231999;28;20529;-69
2021/12/13 10:09:37;;;;;;;150.13;70.40;;;;;;;;;;6222631;28;20655;-69
2021/12/13 10:12:43;;;;;;;145.77;68.10;;;;;;;;;;6230209;28;20037;-68
2021/12/13 10:15:47;;;;;;;128.93;63.15;;;;;;;;;;6238257;28;20432;-68
2021/12/13 10:18:49;;;;;;;127.60;61.22;;;;;;;;;;6241033;28;20080;-69
2021/12/13 10:21:49;;;;;;;125.63;65.38;;;;;;;;;;6246169;28;20021;-68
2021/12/13 10:24:55;;;;;;;121.65;64.57;;;;;;;;;;6235862;28;20113;-68
2021/12/13 10:27:55;;;;;;;141.75;70.75;;;;;;;;;;6238912;28;20036;-69
2021/12/13 10:30:58;;;;;;;119.63;60.90;;;;;;;;;;6241952;28;20458;-68
2021/12/13 10:34:01;;;;;;;132.15;72.47;;;;;;;;;;6243056;28;20025;-68
2021/12/13 10:37:08;;;;;;;121.43;59.90;;;;;;;;;;6236912;28;20474;-69
2021/12/13 10:40:11;;;;;;;129.05;67.18;;;;;;;;;;6241177;28;20029;-69
2021/12/13 10:43:15;;;;;;;141.63;73.05;;;;;;;;;;6221318;28;20022;-69
2021/12/13 10:46:19;;;;;;;154.65;78.63;;;;;;;;;;6243487;28;20047;-69
2021/12/13 10:49:25;;;;;;;141.50;67.25;;;;;;;;;;6221222;28;20261;-69
2021/12/13 10:52:33;;;;;;;142.15;74.38;;;;;;;;;;6224419;28;20048;-69
2021/12/13 10:55:36;;;;;;;134.45;67.15;;;;;;;;;;6220438;28;20053;-69
2021/12/13 10:58:40;;;;;;;165.75;81.35;;;;;;;;;;6219493;28;20030;-69
2021/12/13 11:01:43;;;;;;;146.18;69.10;;;;;;;;;;6222458;28;20108;-69
2021/12/13 11:04:46;;;;;;;129.63;67.10;;;;;;;;;;6219180;28;20392;-70
2021/12/13 11:07:48;;;;;;;122.20;61.20;;;;;;;;;;6223872;28;20025;-70
2021/12/13 11:10:57;;;;;;;126.50;68.05;;;;;;;;;;6226063;28;20042;-70
2021/12/13 11:13:59;;;;;;;124.18;65.32;;;;;;;;;;6219654;28;20378;-70
2021/12/13 11:17:04;;;;;;;144.45;71.55;;;;;;;;;;6219292;28;20430;-70
2021/12/13 11:20:07;;;;;;;135.25;71.03;;;;;;;;;;6232811;28;20378;-69
2021/12/13 11:23:09;;;;;;;136.93;71.50;;;;;;;;;;6234727;28;20363;-69
2021/12/13 11:26:11;;;;;;;132.73;70.03;;;;;;;;;;6223313;28;20023;-69
2021/12/13 11:29:14;;;;;;;135.73;68.18;;;;;;;;;;6244751;28;20033;-69
2021/12/13 11:32:33;;;;;;;147.63;76.28;;;;;;;;;;6242365;28;20049;-69
2021/12/13 11:35:52;;;;;;;169.85;81.68;;;;;;;;;;6232897;28;20382;-70
2021/12/13 11:39:11;;;;;;;142.20;71.03;;;;;;;;;;6224257;28;20096;-70
2021/12/13 11:42:14;;;;;;;149.85;76.00;;;;;;;;;;6224731;28;20025;-70
2021/12/13 11:45:32;;;;;;;134.65;69.05;;;;;;;;;;6240538;28;20040;-70
2021/12/13 11:48:51;;;;;;;138.60;69.57;;;;;;;;;;6244039;28;20481;-70
2021/12/13 11:52:11;;;;;;;145.13;68.78;;;;;;;;;;6244320;28;20051;-70
2021/12/13 11:55:17;;;;;;;155.82;81.85;;;;;;;;;;6235734;28;20018;-70
2021/12/13 11:58:35;;;;;;;151.23;76.88;;;;;;;;;;6225434;28;20072;-71
2021/12/13 12:01:47;;;;;;;142.95;73.43;;;;;;;;;;6222049;28;20026;-71
2021/12/13 12:05:06;;;;;;;139.13;70.85;;;;;;;;;;6221327;28;20038;-71
2021/12/13 12:08:12;;;;;;;151.55;78.22;;;;;;;;;;6221478;28;20030;-71
2021/12/13 12:11:12;;;;;;;136.85;74.63;;;;;;;;;;6222622;28;20040;-71
2021/12/13 12:14:13;;;;;;;133.50;70.53;;;;;;;;;;6242548;28;20351;-71
2021/12/13 12:17:13;;;;;;;132.95;70.65;;;;;;;;;;6242188;28;20737;-71
2021/12/13 12:20:17;;;;;;;136.07;68.65;;;;;;;;;;6242989;28;20017;-71
2021/12/13 12:23:27;;;;;;;132.30;67.90;;;;;;;;;;6243294;28;20024;-71
2021/12/13 12:26:28;;;;;;;123.10;67.05;;;;;;;;;;6224110;28;20057;-71
2021/12/13 12:29:33;;;;;;;143.13;71.47;;;;;;;;;;6220117;28;20085;-71
2021/12/13 12:32:45;;;;;;;152.60;71.30;;;;;;;;;;6218707;28;20021;-71
2021/12/13 12:35:47;;;;;;;151.17;76.17;;;;;;;;;;6221196;28;20076;-71
2021/12/13 12:38:50;;;;;;;137.35;72.10;;;;;;;;;;6234350;28;20374;-72
2021/12/13 12:42:09;;;;;;;151.60;78.93;;;;;;;;;;6222961;28;20018;-72
2021/12/13 12:45:10;;;;;;;133.70;71.93;;;;;;;;;;6232987;28;20045;-72
2021/12/13 12:48:13;;;;;;;143.20;71.40;;;;;;;;;;6228158;28;20032;-72
2021/12/13 12:51:18;;;;;;;140.55;75.03;;;;;;;;;;6217167;28;20092;-72
2021/12/13 12:54:19;;;;;;;135.43;71.97;;;;;;;;;;6232747;28;20025;-72
2021/12/13 12:57:30;;;;;;;147.18;71.88;;;;;;;;;;6235417;28;20064;-72
2021/12/13 13:00:30;;;;;;;148.70;77.53;;;;;;;;;;6223172;28;20119;-72
2021/12/13 13:03:33;;;;;;;162.90;85.05;;;;;;;;;;6231397;28;20018;-72
2021/12/13 13:06:33;;;;;;;136.82;76.40;;;;;;;;;;6232505;28;20025;-72
2021/12/13 13:09:42;;;;;;;148.48;78.68;;;;;;;;;;6236835;28;20069;-72
2021/12/13 13:12:43;;;;;;;166.48;87.00;;;;;;;;;;6221995;28;20036;-73
2021/12/13 13:15:45;;;;;;;173.90;90.60;;;;;;;;;;6224475;28;20482;-72
2021/12/13 13:18:46;;;;;;;173.07;86.60;;;;;;;;;;6237968;28;20431;-73
2021/12/13 13:21:46;;;;;;;167.95;91.30;;;;;;;;;;6235247;28;20171;-73
2021/12/13 13:24:50;;;;;;;226.82;106.13;;;;;;;;;;6236567;28;20358;-73
2021/12/13 13:27:51;;;;;;;222.73;109.18;;;;;;;;;;6231170;28;20338;-73
2021/12/13 13:31:05;;;;;;;216.48;106.43;;;;;;;;;;6222379;28;20080;-73
2021/12/13 13:34:07;;;;;;;213.77;95.82;;;;;;;;;;6234127;28;20026;-73
2021/12/13 13:37:09;;;;;;;177.95;86.75;;;;;;;;;;6245932;28;20022;-73
2021/12/13 13:40:10;;;;;;;169.65;80.10;;;;;;;;;;6236012;28;20104;-73
2021/12/13 13:43:11;;;;;;;164.45;83.85;;;;;;;;;;6228165;28;20022;-73
2021/12/13 13:46:12;;;;;;;179.00;90.25;;;;;;;;;;6225894;28;20022;-73
2021/12/13 13:49:19;;;;;;;161.82;78.90;;;;;;;;;;6237273;28;20049;-73
2021/12/13 13:52:27;;;;;;;167.27;91.93;;;;;;;;;;6222988;28;20017;-73
2021/12/13 13:55:39;;;;;;;173.82;88.72;;;;;;;;;;6240745;28;20054;-73
2021/12/13 13:58:41;;;;;;;177.82;88.63;;;;;;;;;;6218820;28;20021;-74
2021/12/13 14:01:41;;;;;;;;;;;;;;;;;;6221663;28;20096;-74
2021/12/13 14:04:47;;;;;;;170.70;83.85;;;;;;;;;;6233701;28;20012;-73
2021/12/13 14:07:48;;;;;;;166.23;85.68;;;;;;;;;;6249002;28;20405;-73
2021/12/13 14:10:48;;;;;;;175.13;90.40;;;;;;;;;;6242645;28;20038;-73
2021/12/13 14:13:48;;;;;;;183.07;94.50;;;;;;;;;;6241937;28;20092;-74
2021/12/13 14:16:51;;;;;;;195.50;97.60;;;;;;;;;;6235191;28;20109;-74
2021/12/13 14:19:52;;;;;;;189.48;91.68;;;;;;;;;;6233756;28;20076;-74
2021/12/13 14:22:56;;;;;;;201.83;101.43;;;;;;;;;;6245498;28;20026;-74
2021/12/13 14:25:58;;;;;;;230.13;112.82;;;;;;;;;;6241605;28;20777;-74
2021/12/13 14:28:58;;;;;;;;;;;;;;;;;;6226156;28;20112;-74
2021/12/13 14:31:58;;;;;;;230.40;115.30;;;;;;;;;;6222914;28;20285;-74
2021/12/13 14:35:10;;;;;;;226.23;117.35;;;;;;;;;;6219555;28;20629;-74
2021/12/13 14:38:11;;;;;;;216.82;118.25;;;;;;;;;;6223292;28;20057;-74
2021/12/13 14:41:13;;;;;;;222.23;116.40;;;;;;;;;;6235768;28;20493;-74
2021/12/13 14:44:13;;;;;;;;;;;;;;;;;;6227937;28;20028;-74
2021/12/13 14:47:15;;;;;;;227.10;114.15;;;;;;;;;;6239378;28;19913;-74
2021/12/13 14:50:16;;;;;;;;;;;;;;;;;;6219553;28;20054;-74
2021/12/13 14:53:27;;;;;;;213.98;115.20;;;;;;;;;;6228423;28;19913;-74
2021/12/13 14:56:28;;;;;;;220.52;117.32;;;;;;;;;;6223425;28;20502;-74
2021/12/13 14:59:30;;;;;;;226.23;117.45;;;;;;;;;;6222043;28;20049;-74
2021/12/13 15:02:34;;;;;;;245.25;119.70;;;;;;;;;;6223300;28;20068;-74
2021/12/13 15:05:36;;;;;;;218.07;118.53;;;;;;;;;;6217808;28;20018;-74
2021/12/13 15:08:36;;;;;;;;;;;;;;;;;;6222370;28;20046;-74
2021/12/13 15:11:40;;;;;;;229.15;121.15;;;;;;;;;;6226643;28;19914;-74
2021/12/13 15:14:42;;;;;;;242.35;122.10;;;;;;;;;;6225760;28;20053;-74
2021/12/13 15:17:48;;;;;;;226.40;114.38;;;;;;;;;;6233229;28;20462;-74
2021/12/13 15:20:50;;;;;;;254.90;126.70;;;;;;;;;;6218890;28;20423;-74
2021/12/13 15:23:51;;;;;;;243.02;125.10;;;;;;;;;;6227037;28;20029;-74
2021/12/13 15:26:57;;;;;;;245.25;124.88;;;;;;;;;;6235788;28;20120;-75
2021/12/13 15:29:58;;;;;;;222.88;112.55;;;;;;;;;;6227420;28;20022;-74
2021/12/13 15:33:00;;;;;;;226.80;112.15;;;;;;;;;;6217061;28;20480;-74
2021/12/13 15:36:01;;;;;;;;;;;;;;;;;;6240841;28;20045;-74
2021/12/13 15:39:06;;;;;;;205.73;103.68;;;;;;;;;;6241661;28;19921;-74
2021/12/13 15:42:08;;;;;;;215.95;112.70;;;;;;;;;;6227285;28;20033;-74
2021/12/13 15:45:20;;;;;;;232.43;118.32;;;;;;;;;;6234761;28;20052;-74
2021/12/13 15:51:43;;;;;;;301.38;143.38;;;;;;;;;;6226800;28;20441;-74
2021/12/13 15:54:43;;;;;;;;;;;;;;;;;;6242858;28;20025;-75
2021/12/13 15:57:43;;;;;;;331.05;157.50;;;;;;;;;;6243481;28;19905;-75
2021/12/13 16:00:44;;;;;;;277.50;139.57;;;;;;;;;;6243323;28;20032;-74
2021/12/13 16:03:48;;;;;;;251.35;123.97;;;;;;;;;;6241712;28;20048;-74
2021/12/13 16:06:50;;;;;;;256.38;131.70;;;;;;;;;;6243004;28;20022;-75
2021/12/13 16:09:53;;;;;;;258.77;123.93;;;;;;;;;;6241827;28;20037;-74
2021/12/13 16:12:54;;;;;;;276.88;136.52;;;;;;;;;;6235608;28;20031;-74
2021/12/13 16:15:54;;;;;;;269.75;135.07;;;;;;;;;;6241078;28;20021;-74
2021/12/13 16:18:55;;;;;;;265.55;137.35;;;;;;;;;;6241920;28;20088;-74
2021/12/13 16:21:55;;;;;;;253.15;130.02;;;;;;;;;;6228463;28;20022;-74
2021/12/13 16:24:57;;;;;;;253.32;132.52;;;;;;;;;;6243127;28;20029;-74
2021/12/13 16:28:03;;;;;;;245.20;129.20;;;;;;;;;;6237850;28;20389;-75
2021/12/13 16:31:03;;;;;;;232.38;120.93;;;;;;;;;;6231420;28;20037;-75
2021/12/13 16:34:11;;;;;;;242.13;129.23;;;;;;;;;;6240903;28;20440;-75
2021/12/13 16:37:12;;;;;;;292.67;145.48;;;;;;;;;;6234162;28;20080;-75
2021/12/13 16:40:13;;;;;;;277.90;139.13;;;;;;;;;;6228537;28;20414;-75
2021/12/13 16:43:15;;;;;;;287.35;148.07;;;;;;;;;;6230855;28;20055;-75
2021/12/13 16:46:17;;;;;;;315.38;150.10;;;;;;;;;;6218215;28;20046;-75
2021/12/13 16:49:19;;;;;;;316.27;151.50;;;;;;;;;;6218530;28;20026;-75
2021/12/13 16:52:19;;;;;;;;;;;;;;;;;;6223007;28;20367;-75
2021/12/13 16:55:20;;;;;;;287.60;132.65;;;;;;;;;;6240381;28;20435;-76
2021/12/13 16:58:20;;;;;;;304.85;133.88;;;;;;;;;;6218205;28;20052;-75
2021/12/13 17:01:24;;;;;;;285.95;134.90;;;;;;;;;;6218207;28;20029;-75
2021/12/13 17:04:26;;;;;;;281.42;138.48;;;;;;;;;;6229815;28;20083;-75
2021/12/13 17:07:26;;;;;;;;;;;;;;;;;;6225805;28;20552;-75
2021/12/13 17:10:27;;;;;;;265.20;130.32;;;;;;;;;;6216446;28;19921;-75
2021/12/13 17:13:44;;;;;;;235.38;116.65;;;;;;;;;;6222796;28;20273;-75
2021/12/13 17:16:53;;;;;;;287.83;143.93;;;;;;;;;;6239518;28;20059;-75
2021/12/13 17:19:58;;;;;;;272.13;138.95;;;;;;;;;;6222567;28;20086;-75
2021/12/13 17:23:19;;;;;;;288.70;146.85;;;;;;;;;;6226490;28;20386;-75
2021/12/13 17:26:28;;;;;;;318.23;157.45;;;;;;;;;;6236466;28;20544;-75
2021/12/13 17:29:30;;;;;;;274.05;137.98;;;;;;;;;;6226651;28;20029;-75
2021/12/13 17:32:36;;;;;;;287.42;153.15;;;;;;;;;;6242077;28;20036;-75
2021/12/13 17:35:38;;;;;;;274.88;138.25;;;;;;;;;;6241657;28;20018;-75
2021/12/13 17:38:55;;;;;;;253.68;137.25;;;;;;;;;;6245230;28;20029;-75
2021/12/13 17:41:56;;;;;;;276.30;143.45;;;;;;;;;;6247632;28;20036;-75
2021/12/13 17:45:15;;;;;;;281.65;140.70;;;;;;;;;;6246248;28;20032;-75
2021/12/13 17:48:31;;;;;;;265.23;140.38;;;;;;;;;;6241454;28;20022;-75
2021/12/13 17:51:33;;;;;;;316.73;160.23;;;;;;;;;;6237384;28;20025;-75
2021/12/13 17:54:59;;;;;;;343.90;167.47;;;;;;;;;;6246424;28;20470;-75